Date,TemperatureHighF,TemperatureAvgF,TemperatureLowF,DewpointHighF,DewpointAvgF,DewpointLowF,HumidityHigh,HumidityAvg,HumidityLow,PressureMaxIn,PressureMinIn,WindSpeedMaxMPH,WindSpeedAvgMPH,GustSpeedMaxMPH,PrecipitationSumIn
2013-1-1,32.7,25.8,14.0,27.0,15.3,3.1,84,65,49,29.73,29.49,17,4,17,0.00
2013-1-2,19.1,13.3,7.7,5.7,-0.1,-18.1,72,56,24,29.90,29.71,12,2,12,0.00
2013-1-3,20.5,14.1,7.0,9.8,4.6,-1.0,72,65,54,29.97,29.84,8,1,10,0.00
2013-1-4,34.9,27.2,15.7,25.6,17.9,-12.3,85,68,20,29.84,29.61,19,7,19,0.00
2013-1-5,34.4,28.5,16.7,26.2,16.9,3.9,73,62,50,30.20,29.60,17,4,17,0.01
2013-1-6,32.4,25.5,16.5,31.1,22.0,7.0,100,86,65,30.17,29.82,3,0,3,0.00
2013-1-7,27.0,18.9,13.1,25.5,13.3,5.6,95,79,63,30.33,29.88,10,1,10,0.00
2013-1-8,39.9,35.4,23.3,30.6,27.1,20.4,95,72,57,30.27,30.08,25,8,25,0.02
2013-1-9,42.5,35.0,25.3,37.4,30.4,23.0,100,84,67,30.33,29.76,14,2,16,0.00
2013-1-10,41.6,37.5,31.0,31.4,26.5,19.9,77,64,56,30.42,29.76,18,3,18,0.00
2013-1-11,35.2,30.8,25.0,26.9,20.5,16.7,75,66,52,30.45,30.19,8,0,8,0.00
2013-1-12,43.6,38.8,33.8,41.4,33.9,26.7,92,82,74,30.20,30.03,5,0,5,0.00
2013-1-13,48.9,45.2,43.1,48.9,45.0,40.9,100,100,92,30.06,29.86,13,3,13,0.01
2013-1-14,51.6,46.4,37.3,51.6,44.4,25.7,100,94,62,30.10,29.77,20,6,20,0.00
2013-1-15,37.6,33.0,28.7,27.2,23.3,20.0,88,68,54,30.23,30.09,6,0,6,0.00
2013-1-16,40.2,34.6,29.5,40.2,29.4,17.9,100,83,55,30.21,29.66,10,0,10,0.38
2013-1-17,41.6,31.8,14.4,41.6,24.6,-6.8,100,76,38,30.05,29.65,14,5,14,0.06
2013-1-18,20.5,13.7,6.7,3.9,-1.6,-7.4,58,50,38,30.32,30.03,18,3,18,0.00
2013-1-19,36.0,31.2,20.5,34.6,26.3,2.5,100,83,45,30.29,29.81,21,6,26,0.00
2013-1-20,46.5,40.1,25.7,43.2,31.2,9.1,100,73,40,29.81,29.34,25,8,25,0.00
2013-1-21,25.7,20.1,15.2,14.0,3.2,-1.6,78,48,35,29.96,29.71,157,2,157,0.00
2013-1-22,18.9,13.7,10.0,13.2,4.4,-6.7,80,66,44,29.89,29.67,13,1,13,0.00
2013-1-23,10.9,5.1,1.1,-3.8,-9.6,-15.4,61,50,41,29.96,29.89,17,2,17,0.00
2013-1-24,13.5,6.0,-0.2,1.6,-6.9,-11.2,66,56,36,29.97,29.78,157,2,157,0.00
2013-1-25,20.5,12.9,5.2,5.6,0.4,-5.7,68,57,46,30.07,29.95,12,1,12,0.00
2013-1-26,19.4,13.7,7.6,2.6,-1.7,-4.2,60,50,41,29.99,29.85,34,2,34,0.00
2013-1-27,21.8,16.1,9.9,8.5,0.5,-15.9,65,51,26,30.29,29.98,157,3,157,0.00
2013-1-28,27.0,20.2,13.1,22.6,6.7,-1.4,95,58,31,30.31,29.99,157,0,157,0.00
2013-1-29,34.9,27.8,19.1,30.0,22.9,17.2,94,82,65,30.15,29.98,2,0,2,0.01
2013-1-30,53.1,45.8,34.3,53.1,45.1,30.0,100,97,82,30.09,29.38,24,7,24,0.00
2013-1-31,56.0,46.9,32.5,56.0,41.2,15.9,100,83,49,29.39,28.76,31,15,34,0.00
2013-2-1,32.5,25.7,16.5,17.6,10.0,3.0,63,51,35,29.91,29.31,22,6,26,0.00
2013-2-2,25.7,19.6,12.8,21.7,7.6,-1.1,90,60,41,30.11,29.91,157,2,157,0.00
2013-2-3,28.4,24.7,21.3,23.6,20.7,15.8,96,85,74,29.98,29.56,8,1,8,0.00
2013-2-4,28.5,22.6,16.5,19.0,10.5,-5.4,81,61,36,29.75,29.49,16,3,16,0.00
2013-2-5,23.2,17.3,13.5,6.3,-0.8,-6.8,58,45,37,29.95,29.75,14,1,14,0.00
2013-2-6,34.0,25.7,18.6,29.5,16.6,-10.3,86,70,26,30.15,29.83,13,1,13,0.00
2013-2-7,18.4,12.2,8.3,5.3,-3.8,-10.3,60,48,37,30.52,30.15,18,1,18,0.00
2013-2-8,22.7,15.3,8.8,20.5,6.9,-20.2,93,72,24,30.53,29.80,13,1,13,0.00
2013-2-9,18.3,15.8,12.6,16.9,13.8,10.7,94,92,89,29.94,29.49,28,7,28,0.00
2013-2-10,30.4,21.7,14.1,19.3,9.1,-19.3,89,61,19,30.26,29.94,14,2,14,0.00
2013-2-11,44.3,30.1,13.3,44.3,27.0,3.2,100,89,56,30.26,29.47,10,1,10,0.00
2013-2-12,41.1,38.4,36.2,40.8,34.0,28.0,100,85,65,29.65,29.40,14,4,14,0.00
2013-2-13,40.5,35.5,30.4,29.7,27.1,23.5,93,72,56,29.71,29.62,10,1,10,0.00
2013-2-14,40.2,32.0,24.7,29.8,21.4,10.3,93,66,47,29.92,29.61,8,0,10,0.00
2013-2-15,42.2,36.2,23.9,40.3,33.5,20.3,100,90,76,29.92,29.84,18,3,18,0.00
2013-2-16,37.2,33.5,29.4,37.2,32.6,28.2,100,96,80,29.85,29.65,10,1,10,0.00
2013-2-17,29.4,24.0,21.1,28.4,21.9,14.4,98,92,75,29.65,28.91,19,5,19,0.00
2013-2-18,31.2,23.5,17.7,14.6,8.7,4.1,75,53,42,29.86,29.20,18,4,18,0.00
2013-2-19,42.9,32.3,22.9,42.6,17.8,4.4,100,57,27,30.00,29.59,18,2,18,0.00
2013-2-20,46.0,37.7,28.8,46.0,31.7,17.1,100,80,59,29.59,29.30,14,3,14,0.00
2013-2-21,34.1,28.8,24.2,29.8,20.0,13.8,84,69,58,29.99,29.51,19,2,19,0.00
2013-2-22,38.2,32.0,27.0,25.7,21.4,18.5,77,65,48,30.29,29.99,12,1,17,0.00
2013-2-23,34.0,31.9,27.3,29.4,23.9,-8.5,86,75,20,30.27,29.98,6,0,6,0.00
2013-2-24,34.1,32.0,29.1,34.0,30.8,23.6,100,96,73,29.98,29.69,8,0,8,0.00
2013-2-25,37.6,28.4,22.9,27.9,19.8,-3.5,95,73,23,30.15,29.78,7,0,7,0.00
2013-2-26,43.5,31.8,22.9,33.8,17.9,-16.0,99,64,15,30.28,30.15,157,1,157,0.00
2013-2-27,39.9,35.1,27.9,36.6,27.1,-2.9,100,78,18,30.21,29.68,27,1,27,0.00
2013-2-28,43.6,40.4,36.3,43.5,40.4,36.3,100,100,100,29.63,29.42,11,1,11,0.00
2013-3-1,37.0,35.5,34.4,37.0,35.5,34.4,100,100,100,29.54,29.40,13,1,13,0.00
2013-3-2,38.0,36.0,34.7,37.5,35.7,32.8,100,99,92,29.52,29.48,8,1,8,0.00
2013-3-3,42.9,38.5,35.9,40.8,36.8,32.7,100,94,83,29.49,29.38,7,0,7,0.00
2013-3-4,36.9,35.1,33.5,36.6,33.9,29.8,100,95,85,29.54,29.34,10,0,10,0.00
2013-3-5,44.1,38.9,36.5,42.8,36.7,30.5,100,92,70,30.04,29.54,5,0,6,0.00
2013-3-6,38.2,34.9,33.1,35.9,29.9,25.4,96,82,73,30.19,30.04,14,1,14,0.00
2013-3-7,37.3,34.4,32.8,27.0,25.4,24.2,74,69,62,30.14,29.97,12,2,12,0.00
2013-3-8,45.8,36.7,31.3,28.8,24.5,20.3,77,62,41,30.10,29.95,14,2,14,0.00
2013-3-9,42.3,34.2,28.8,28.4,24.2,20.8,80,67,47,30.30,30.10,11,1,11,0.00
2013-3-10,36.2,32.1,29.1,31.5,26.4,23.6,86,79,69,30.35,30.23,7,0,7,0.00
2013-3-11,42.8,39.6,35.3,42.3,36.8,31.0,99,90,84,30.25,30.10,12,4,12,0.00
2013-3-12,50.4,46.4,42.6,48.9,44.6,41.5,100,94,78,30.11,29.70,14,2,14,0.00
2013-3-13,51.4,45.5,37.2,51.3,45.2,31.8,100,99,90,29.74,29.55,14,2,16,0.02
2013-3-14,42.6,34.9,25.8,35.1,27.7,18.2,100,76,52,29.61,29.52,14,2,14,0.00
2013-3-15,32.5,26.7,19.7,20.8,15.5,10.0,79,63,41,29.65,29.52,14,3,14,0.00
2013-3-16,27.5,26.6,26.0,22.7,21.6,20.7,82,81,79,29.53,29.52,0,0,0,0.00
2013-5-21,51.9,51.1,50.7,51.7,51.1,50.7,100,100,100,30.01,29.95,3,0,7,0.00
2013-5-22,54.2,51.9,50.7,54.2,51.1,0.0,100,99,100,30.01,29.87,13,0,13,0.00
2013-5-23,60.5,55.8,50.4,60.5,55.8,50.4,100,100,100,29.91,29.78,15,4,15,0.00
2013-5-24,64.5,58.9,54.1,64.5,58.9,53.9,100,100,100,29.79,29.61,19,6,19,0.00
2013-5-25,56.0,54.2,52.2,56.0,54.2,52.2,100,100,100,29.75,29.62,7,1,7,0.00
2013-5-26,53.9,51.4,47.7,53.9,50.9,43.7,100,98,86,29.86,29.55,5,0,5,0.00
2013-5-27,66.6,53.7,45.4,62.3,45.8,31.9,88,77,42,30.09,29.86,12,1,12,0.00
2013-5-28,65.2,57.3,43.5,65.2,45.9,36.3,100,72,38,30.17,30.09,13,5,13,0.00
2013-5-29,63.5,55.3,50.5,56.6,49.9,25.9,100,87,38,30.17,29.94,11,2,11,0.24
2013-5-30,76.8,63.4,54.1,74.6,58.6,0.0,100,87,64,29.96,29.90,13,2,13,0.00
2013-5-31,79.4,68.5,56.2,69.4,59.8,52.7,93,75,55,29.98,29.83,12,4,12,0.00
2013-6-1,77.7,67.0,58.3,73.4,60.2,55.2,99,80,64,29.86,29.76,12,3,12,0.00
2013-6-2,69.3,63.4,60.2,65.3,59.6,55.2,95,87,79,29.76,29.66,25,8,25,0.00
2013-6-3,65.8,61.7,59.2,65.8,61.0,56.9,100,98,92,29.76,29.66,17,6,17,0.06
2013-6-4,68.8,61.6,54.8,63.1,50.2,40.1,100,70,45,29.95,29.69,11,0,11,0.00
2013-6-5,65.0,58.1,51.9,50.7,45.3,38.3,78,63,43,30.09,29.95,13,3,13,0.00
2013-6-6,66.9,58.2,49.6,60.7,49.7,40.4,98,76,47,30.16,30.09,6,0,7,0.00
2013-6-7,60.5,55.9,53.5,55.7,50.5,39.6,100,83,58,30.11,29.92,7,0,7,0.31
2013-6-8,66.8,60.0,54.7,65.3,59.2,54.7,100,97,84,29.92,29.56,157,0,157,1.45
2013-6-9,62.3,58.9,56.6,59.9,55.9,51.9,100,90,76,30.07,29.90,10,1,10,0.00
2013-6-10,66.6,59.1,0.0,62.7,49.6,0.0,100,76,65,30.16,30.01,11,2,11,0.00
2013-6-11,57.3,55.9,54.5,57.2,55.4,53.3,100,98,92,30.01,29.43,11,1,11,0.81
2013-6-12,61.8,58.3,54.7,61.8,58.3,54.7,100,100,100,29.64,29.40,10,0,10,0.45
2013-6-13,67.1,59.9,55.3,66.4,55.5,46.8,100,86,64,29.73,29.64,5,0,8,0.10
2013-6-14,60.7,56.8,54.7,57.6,51.2,46.9,100,82,72,29.68,29.61,3,0,3,0.00
2013-6-15,75.1,64.6,51.7,62.5,47.8,32.5,100,59,35,29.81,29.64,7,2,7,0.00
2013-6-16,70.4,61.2,54.5,63.9,54.3,46.3,99,79,49,29.83,29.66,8,1,8,0.02
2013-6-17,72.8,64.1,57.2,72.8,64.1,57.2,100,100,99,29.78,29.65,13,2,13,0.06
2013-6-18,68.9,63.0,59.2,68.9,59.8,50.7,100,90,65,29.90,29.77,5,0,8,0.00
2013-6-19,75.4,64.5,54.8,66.1,52.5,40.7,99,69,36,30.06,29.85,6,0,6,0.00
2013-6-20,73.0,62.3,53.5,59.8,52.9,45.4,100,74,42,30.18,30.06,7,2,7,0.00
2013-6-21,74.9,64.4,56.7,73.7,57.7,50.7,100,81,50,30.16,30.10,12,2,12,0.00
2013-6-22,71.8,64.0,58.3,65.7,59.4,54.4,97,85,73,30.13,30.05,6,0,6,0.00
2013-6-23,70.1,63.5,59.6,70.1,62.2,57.6,100,96,83,30.09,29.89,10,1,10,0.18
2013-6-24,87.4,72.6,64.3,75.4,67.1,59.5,100,84,60,29.89,29.75,10,1,10,0.03
2013-6-25,82.2,73.1,66.1,70.1,64.7,54.4,100,76,50,29.78,29.64,12,2,12,0.07
2013-6-26,75.6,65.1,58.9,74.0,64.7,58.4,100,99,90,29.83,29.63,6,0,6,0.14
2013-6-27,59.2,57.0,55.7,59.2,57.0,55.7,100,100,97,29.84,29.80,5,0,6,0.03
2013-6-28,67.9,61.6,57.8,67.9,61.6,57.8,100,100,100,29.81,29.53,8,1,10,2.02
2013-6-29,67.8,65.1,62.9,67.8,65.1,62.9,100,100,100,29.66,29.52,14,3,14,0.04
2013-6-30,68.3,65.0,62.9,68.3,65.0,62.9,100,100,100,29.89,29.66,10,3,10,0.00
2013-7-1,73.3,67.1,62.9,72.8,66.5,62.9,100,98,86,30.06,29.88,6,0,6,0.09
2013-7-2,67.1,62.8,60.1,67.1,62.8,60.1,100,100,100,30.16,30.04,6,0,6,0.38
2013-7-3,69.1,64.2,61.2,68.9,63.6,61.2,100,98,85,30.13,30.06,10,1,10,0.00
2013-7-4,86.7,73.8,62.4,77.6,68.5,62.4,100,85,57,30.09,29.99,11,1,11,0.00
2013-7-5,84.5,75.8,67.3,82.2,70.8,64.9,100,86,62,30.03,29.93,13,3,13,0.02
2013-7-6,88.2,77.6,68.9,85.9,71.4,63.7,100,83,57,29.95,29.84,10,1,10,0.00
2013-7-7,86.3,77.1,68.8,70.9,64.3,60.3,85,66,47,29.88,29.83,16,2,16,0.00
2013-7-8,74.9,68.3,62.3,70.8,65.4,59.1,100,91,75,30.02,29.84,3,0,5,0.27
2013-7-9,66.6,63.6,61.6,66.6,63.2,60.5,100,99,93,30.07,30.01,6,0,6,0.13
2013-7-10,69.3,63.3,62.0,69.3,63.1,60.8,100,100,94,30.04,29.72,12,0,12,0.00
2013-7-11,76.8,70.6,65.8,76.0,69.9,65.8,100,98,87,29.89,29.69,13,1,13,0.00
2013-7-12,78.1,69.6,60.7,69.4,59.6,52.9,100,72,51,30.16,29.89,5,0,5,0.00
2013-7-13,79.0,68.7,58.9,73.5,60.7,52.1,100,78,55,30.26,30.15,11,1,11,0.00
2013-7-14,85.9,72.7,63.2,77.9,66.1,60.1,100,81,58,30.22,30.11,9,1,9,0.00
2013-7-15,92.3,77.3,64.7,90.5,69.4,54.6,100,80,43,30.11,29.99,7,1,7,0.00
2013-7-16,91.6,76.8,66.3,76.8,65.9,57.9,94,71,48,30.12,30.00,6,0,6,0.00
2013-7-17,73.9,68.9,63.5,69.1,63.9,56.5,99,84,73,30.13,29.85,17,5,17,0.23
2013-7-18,84.3,74.4,68.6,76.8,68.0,59.8,100,82,53,29.95,29.85,8,1,12,0.14
2013-7-19,80.1,72.7,68.3,76.3,70.9,67.4,100,95,77,29.91,29.58,17,5,17,0.00
2013-7-20,80.9,75.0,68.4,73.8,69.6,62.8,100,84,65,29.70,29.52,16,4,17,0.00
2013-7-21,74.2,67.4,60.5,68.6,57.4,52.3,94,71,52,29.98,29.71,10,1,10,0.00
2013-7-22,71.5,64.3,58.4,70.1,58.9,53.1,100,84,56,30.00,29.90,6,0,6,0.00
2013-7-23,69.9,65.4,62.3,69.6,65.4,62.0,100,100,100,29.90,29.46,5,0,6,0.76
2013-7-24,76.5,69.3,61.5,74.6,67.4,52.0,100,94,70,29.89,29.49,13,1,13,0.00
2013-7-25,74.0,63.3,56.6,61.5,55.5,50.6,94,76,54,30.07,29.89,6,0,6,0.02
2013-7-26,71.3,67.2,61.6,71.3,67.2,59.9,100,100,94,30.02,29.77,6,0,6,1.46
2013-7-27,76.3,68.2,63.4,67.9,64.0,58.0,100,87,72,30.00,29.77,11,2,11,0.02
2013-7-28,69.8,65.5,62.7,69.8,65.5,62.7,100,100,98,30.01,29.96,3,0,3,0.14
2013-7-29,70.4,65.9,62.0,68.1,65.4,62.0,100,98,89,30.01,29.92,3,0,3,0.01
2013-7-30,80.3,68.9,63.7,75.3,66.0,60.2,100,91,62,29.99,29.93,8,1,8,0.02
2013-7-31,78.3,67.9,59.9,73.3,61.4,55.9,100,81,52,30.04,29.97,13,2,13,0.00
2013-8-1,74.9,66.9,61.5,70.6,64.6,60.4,100,93,82,30.00,29.85,10,1,10,0.00
2013-8-2,68.6,66.5,63.5,68.6,66.5,63.5,100,100,100,29.85,29.70,7,1,7,0.72
2013-8-3,70.1,65.5,60.9,69.3,63.6,60.9,100,94,77,29.76,29.66,12,2,12,0.01
2013-8-4,76.8,67.4,59.9,70.2,61.5,55.9,100,82,62,29.73,29.66,14,1,14,0.00
2013-8-5,74.6,65.0,58.7,59.4,55.5,49.1,92,72,51,29.94,29.72,5,0,7,0.00
2013-8-6,73.0,64.5,55.0,61.0,52.6,47.9,86,66,48,30.09,29.94,13,3,13,0.00
2013-8-7,71.8,64.1,55.7,63.2,56.6,47.2,100,78,51,30.14,30.08,8,1,8,0.00
2013-8-8,68.6,65.3,62.6,68.3,65.0,61.8,100,99,93,30.09,29.98,8,1,8,0.36
2013-8-9,71.3,68.2,66.1,71.1,68.2,66.1,100,100,100,29.98,29.63,17,4,17,0.92
2013-8-10,79.9,70.6,60.5,74.7,61.7,46.3,100,77,41,29.90,29.64,10,1,10,0.00
2013-8-11,72.5,65.4,58.6,67.7,55.7,50.3,90,72,51,29.96,29.89,12,3,12,0.00
2013-8-12,73.9,66.9,61.2,67.0,58.0,53.6,90,74,54,29.93,29.84,8,3,8,0.00
2013-8-13,68.8,65.1,61.2,67.9,64.4,59.1,100,98,90,29.85,29.65,3,0,3,0.00
2013-8-14,69.9,65.6,59.3,69.6,63.6,53.5,100,94,81,29.77,29.53,12,1,12,0.00
2013-8-15,70.9,63.7,57.8,61.5,54.7,48.8,93,74,57,30.01,29.77,13,5,13,0.00
2013-8-16,75.1,65.5,58.4,72.7,58.7,49.2,100,81,52,30.12,30.00,6,1,6,0.00
2013-8-17,78.8,67.0,58.4,73.0,57.2,0.0,100,76,46,30.20,30.12,7,1,7,0.00
2013-8-18,74.2,66.6,59.0,73.0,61.9,52.9,99,87,53,30.20,29.98,8,2,8,0.00
2013-8-19,78.5,68.1,0.0,69.3,55.0,0.0,100,74,67,29.98,29.80,11,4,11,0.00
2013-8-20,82.6,70.7,64.5,80.0,63.7,55.1,96,80,55,30.01,29.86,12,1,12,0.00
2013-8-21,81.6,70.4,61.3,74.9,64.0,60.3,100,82,55,30.06,29.92,10,1,10,0.00
2013-8-22,76.8,70.1,64.2,73.0,66.7,62.4,100,90,68,29.92,29.69,12,3,12,0.00
2013-8-23,76.5,68.5,59.0,69.1,59.9,45.2,100,77,46,30.06,29.68,12,1,12,0.00
2013-8-24,77.4,64.2,53.5,70.0,52.4,43.8,97,70,35,30.23,30.06,6,0,6,0.00
2013-8-25,76.7,64.1,55.0,72.5,56.4,49.4,100,79,45,30.27,30.09,8,1,8,0.00
2013-8-26,69.8,64.9,58.3,65.9,63.4,57.2,100,95,81,30.09,29.80,15,2,17,0.01
2013-8-27,82.4,69.9,62.6,78.6,66.0,62.6,100,89,62,29.84,29.77,7,0,7,0.00
2013-8-28,75.4,65.5,61.3,71.6,64.0,61.3,100,95,76,29.94,29.83,6,0,6,0.02
2013-8-29,67.4,63.8,58.3,66.6,61.8,57.5,100,93,78,30.04,29.93,7,0,7,0.00
2013-8-30,68.3,63.3,56.9,67.4,61.1,55.9,100,93,69,29.94,29.72,13,2,13,0.01
2013-8-31,74.2,67.8,65.0,72.8,67.5,65.0,100,99,91,29.77,29.70,10,0,17,0.38
2013-9-1,79.4,70.4,64.8,76.7,69.2,64.8,100,96,79,29.89,29.70,6,0,7,0.06
2013-9-2,68.3,65.1,62.4,68.3,65.1,62.4,100,100,100,29.90,29.69,13,0,18,2.72
2013-9-3,75.3,69.2,66.4,74.4,69.2,66.4,100,100,100,29.71,29.64,8,0,10,0.62
2013-9-4,74.6,67.7,62.9,69.4,63.2,56.6,100,87,57,29.82,29.65,16,2,16,0.00
2013-9-5,70.1,60.9,52.2,63.9,56.0,44.5,100,86,47,30.05,29.79,8,0,8,0.32
2013-9-6,63.1,56.6,48.5,59.2,48.1,38.4,100,75,46,30.13,29.97,12,3,12,0.00
2013-9-7,66.6,62.1,59.2,62.4,57.1,49.4,100,85,60,29.97,29.71,13,4,13,0.01
2013-9-8,64.7,59.9,51.3,64.7,55.3,42.9,100,86,59,29.97,29.61,12,2,12,0.55
2013-9-9,60.7,55.3,47.6,60.1,47.8,40.6,100,77,55,30.12,29.97,16,4,16,0.00
2013-9-10,65.0,62.0,59.8,63.6,61.0,57.5,100,96,88,30.05,29.98,18,4,18,0.00
2013-9-11,74.2,67.0,62.0,72.8,66.2,62.0,100,97,76,29.99,29.83,17,2,17,0.01
2013-9-12,76.0,68.2,65.2,75.6,67.7,62.5,100,98,86,29.95,29.61,14,5,17,0.18
2013-9-13,70.8,66.7,62.3,70.8,66.7,62.3,100,100,100,29.61,29.51,11,1,11,0.32
2013-9-14,72.0,63.6,57.6,68.1,61.3,57.0,100,93,69,29.93,29.60,9,1,10,0.01
2013-9-15,63.2,58.9,53.9,60.7,54.9,49.7,100,88,64,30.05,29.93,18,3,18,0.00
2013-9-16,64.7,58.2,47.0,63.2,55.7,39.8,100,92,71,30.17,29.89,11,0,11,0.04
2013-9-17,67.4,52.8,43.6,53.9,43.7,36.7,100,73,49,30.29,30.17,8,0,11,0.00
2013-9-18,65.3,57.5,48.3,64.8,50.5,45.3,100,80,53,30.21,30.01,14,3,14,0.01
2013-9-19,74.2,61.2,51.3,62.5,52.7,47.0,100,76,51,30.03,29.94,10,2,10,0.00
2013-9-20,75.3,61.2,52.5,68.3,54.9,48.5,100,82,50,30.03,29.95,5,0,5,0.00
2013-9-21,66.6,62.0,58.3,65.2,61.3,58.3,100,98,82,29.99,29.74,14,2,14,0.00
2013-9-22,69.4,64.4,57.0,68.6,63.8,55.0,100,98,83,29.74,29.54,27,3,27,0.40
2013-9-23,59.3,53.6,48.6,54.9,46.2,42.5,93,76,61,29.82,29.62,12,0,12,0.00
2013-9-24,53.3,51.4,49.2,53.2,45.2,41.3,100,80,72,29.81,29.73,6,0,8,0.04
2013-9-25,60.4,54.6,51.1,51.3,49.0,46.4,95,82,67,29.87,29.75,8,0,8,0.00
2013-9-26,63.1,56.3,51.1,53.1,51.3,48.3,100,84,69,30.03,29.87,8,0,8,0.00
2013-9-27,71.5,60.6,55.0,59.1,54.2,45.8,100,82,49,30.17,30.03,5,0,5,0.00
2013-9-28,67.8,58.4,52.2,62.4,54.3,48.5,100,88,64,30.27,30.16,5,0,5,0.00
2013-9-29,65.2,56.1,49.2,64.0,53.2,46.8,100,91,60,30.20,30.06,7,0,7,0.01
2013-9-30,63.9,57.9,53.3,60.2,54.1,47.1,100,88,66,30.07,29.88,3,0,3,0.00
2013-10-1,74.0,61.3,54.8,65.6,55.5,40.8,100,85,43,29.88,29.73,7,0,7,0.00
2013-10-2,72.7,63.5,55.7,65.2,57.2,49.8,100,81,63,29.79,29.65,11,2,11,0.01
2013-10-3,72.7,62.0,53.8,59.8,51.2,46.2,97,70,45,29.98,29.80,12,1,12,0.00
2013-10-4,70.3,58.9,51.7,63.2,52.4,42.4,100,81,48,30.01,29.95,6,0,6,0.00
2013-10-5,59.3,55.3,52.2,53.5,45.8,40.8,100,71,55,30.08,30.01,1,0,1,0.00
2013-10-6,57.8,51.6,46.5,52.9,41.7,35.1,100,70,47,30.22,30.08,2,0,2,0.03
2013-10-7,69.1,60.8,49.8,69.1,60.7,46.4,100,100,88,30.17,29.74,24,2,24,0.18
2013-10-8,68.3,57.2,46.8,68.3,50.6,38.6,100,80,56,30.32,29.74,18,2,24,0.02
2013-10-9,59.6,50.3,44.1,47.5,43.0,36.5,100,78,51,30.41,30.30,6,0,6,0.00
2013-10-10,60.1,53.0,46.4,59.9,51.1,44.2,100,94,69,30.30,30.12,7,1,7,0.01
2013-10-11,68.4,57.2,49.8,59.1,53.2,49.8,100,88,56,30.13,30.05,2,0,2,0.00
2013-10-12,58.6,54.1,48.6,57.8,50.6,44.1,100,88,71,30.36,30.13,8,0,8,0.00
2013-10-13,57.5,51.6,46.5,56.0,46.2,35.4,100,83,58,30.41,30.32,7,0,7,0.00
2013-10-14,57.8,52.5,46.4,53.9,48.5,45.6,100,87,68,30.32,30.18,11,3,11,0.01
2013-10-15,66.0,58.2,53.5,62.0,54.6,48.8,100,89,62,30.21,30.16,3,0,3,0.00
2013-10-25,51.4,45.7,40.2,38.1,32.6,30.0,69,60,51,29.99,29.84,6,0,6,0.00
2013-10-26,51.4,44.8,37.8,42.9,33.3,26.0,77,64,54,30.03,29.79,24,5,24,0.02
2013-10-27,52.9,47.3,43.1,47.7,39.5,30.9,100,75,58,29.91,29.69,14,2,17,0.06
2013-10-28,52.6,44.5,37.0,41.4,33.2,26.4,72,65,52,30.26,29.90,20,4,20,0.00
2013-10-29,45.4,37.3,31.2,34.4,28.0,19.7,100,71,48,30.37,30.24,5,0,5,0.00
2013-10-30,46.5,40.2,34.1,39.5,32.0,22.0,100,75,42,30.28,30.09,16,1,16,0.00
2013-10-31,60.7,48.6,34.9,60.2,46.7,30.1,100,93,70,30.17,29.69,18,3,18,0.33
2013-11-1,64.3,60.8,57.5,64.3,59.5,53.2,100,96,82,29.72,29.27,26,12,26,0.46
2013-11-2,59.9,53.8,48.2,57.3,50.3,42.8,100,88,71,29.70,29.46,12,1,12,0.00
2013-11-3,49.1,38.7,32.1,44.6,28.4,21.0,88,67,50,30.31,29.67,12,1,12,0.07
2013-11-4,39.8,33.5,29.1,28.9,21.8,19.0,84,63,46,30.62,30.31,10,0,10,0.00
2013-11-5,47.1,40.3,32.2,39.3,33.4,28.1,94,77,61,30.64,30.43,11,2,11,0.00
2013-11-6,54.8,49.9,42.6,54.8,45.1,37.8,100,84,75,30.43,29.92,18,6,18,0.00
2013-11-7,60.1,54.5,41.8,60.1,54.1,36.1,100,99,80,29.92,29.55,20,8,20,0.15
2013-11-8,44.5,40.6,37.8,37.7,28.7,24.0,83,63,53,29.85,29.65,12,1,12,0.00
2013-11-9,43.1,38.2,32.5,31.1,25.9,21.6,87,62,50,30.03,29.85,6,0,8,0.00
2013-11-10,48.5,43.5,34.6,48.5,40.9,29.4,100,91,72,30.01,29.61,10,0,10,0.15
2013-11-11,48.2,43.0,39.5,44.8,36.1,28.7,100,77,61,29.89,29.62,10,0,10,0.00
2013-11-12,48.0,36.7,30.3,39.1,25.7,17.3,90,65,57,29.97,29.73,22,3,22,0.01
2013-11-13,35.2,30.5,27.5,20.7,17.1,13.1,69,57,48,30.09,29.97,13,1,13,0.00
2013-11-14,46.0,38.3,31.8,35.2,27.9,18.1,97,67,53,30.00,29.87,16,2,16,0.00
2013-11-15,49.4,41.4,34.7,47.4,35.6,29.1,100,82,51,30.10,29.98,14,2,14,0.00
2013-11-16,51.1,43.2,37.3,48.0,41.6,37.3,100,94,78,30.26,30.10,4,0,4,0.00
2013-11-17,53.6,48.0,38.5,53.6,47.1,38.5,100,97,83,30.29,29.90,10,0,10,0.02
2013-11-18,61.2,55.4,47.3,61.2,54.5,47.3,100,97,84,29.90,29.40,21,5,21,0.39
2013-11-19,49.6,39.2,34.1,49.6,29.2,21.1,100,68,55,30.06,29.46,12,0,12,0.00
2013-11-20,37.8,33.2,30.1,22.4,17.1,12.2,62,52,38,30.53,30.06,17,2,17,0.00
2013-11-21,46.1,36.3,28.1,38.6,24.1,16.3,86,63,32,30.53,30.25,7,0,7,0.00
2013-11-22,42.5,38.5,35.8,38.6,29.2,25.4,86,69,53,30.25,29.66,6,0,6,0.00
2013-11-23,45.7,37.8,31.0,45.1,27.4,16.2,100,68,47,29.67,29.53,13,1,13,0.06
2013-11-24,31.0,25.8,23.0,19.8,12.7,7.7,66,57,46,29.63,29.52,14,1,14,0.00
2013-11-27,60.4,56.3,45.8,60.4,56.3,45.4,100,100,100,29.91,29.02,22,5,22,2.07
2013-11-28,46.2,32.9,22.4,45.5,22.7,6.9,100,68,43,30.27,29.14,17,1,17,0.02
2013-11-29,26.6,22.6,19.1,14.0,10.9,8.5,72,60,53,30.64,30.27,10,0,10,0.00
2013-11-30,35.9,24.4,17.2,27.7,15.5,8.2,82,69,46,30.72,30.35,14,1,14,0.00
2013-12-1,44.1,40.7,35.0,43.9,37.2,26.8,100,88,69,30.35,30.00,16,3,16,0.29
2013-12-2,49.9,46.2,41.2,49.9,46.2,41.2,100,100,100,30.00,29.83,8,0,8,0.17
2013-12-3,46.0,43.4,38.8,46.0,43.4,38.1,100,100,97,29.83,29.72,8,0,8,0.00
2013-12-4,41.5,37.1,31.0,38.4,31.8,27.3,97,81,69,30.12,29.73,7,0,7,0.00
2013-12-5,54.4,42.0,30.9,54.4,41.0,27.3,100,97,86,30.19,29.84,12,1,12,0.03
2013-12-6,54.7,48.4,41.6,54.7,47.5,34.2,100,97,75,30.01,29.75,11,1,11,0.04
2013-12-7,41.5,33.9,26.4,36.6,23.7,13.2,100,67,51,30.29,29.97,12,0,12,0.02
2013-12-8,28.5,25.5,23.5,16.4,12.3,9.2,65,57,48,30.51,30.29,8,0,8,0.00
2013-12-9,42.8,31.8,23.5,42.6,25.4,8.1,100,79,51,30.47,29.72,11,0,11,0.21
2013-12-10,40.6,33.7,25.1,39.2,31.5,15.0,100,92,65,29.77,29.61,10,1,10,0.01
2013-12-11,29.7,26.7,23.8,17.3,14.3,11.1,71,59,48,30.01,29.76,21,5,21,0.00
2013-12-12,23.8,17.6,13.8,13.4,5.2,-3.1,69,58,45,30.13,29.89,16,2,16,0.00
2013-12-13,24.1,18.9,7.6,13.9,5.1,-4.3,71,55,35,30.28,29.78,21,5,21,0.00
2013-12-14,14.6,8.6,2.6,9.3,-3.7,-9.7,80,57,37,30.53,30.28,10,1,10,0.00
2013-12-15,35.8,23.4,14.4,35.8,22.3,9.3,100,96,80,30.33,29.20,16,2,16,0.00
2013-12-16,26.4,19.1,8.3,25.9,14.8,2.0,100,83,60,30.09,29.54,14,1,17,0.00
2013-12-17,21.6,11.4,1.1,21.4,6.4,-4.8,99,80,70,30.23,29.93,5,0,5,0.00
2013-12-18,26.1,23.3,21.0,26.1,22.6,19.6,100,97,91,29.93,29.72,5,0,5,0.00
2013-12-19,34.4,30.5,24.8,29.6,26.4,21.4,95,85,77,30.01,29.82,11,3,11,0.01
2013-12-20,42.1,36.3,31.0,42.1,36.0,28.8,100,99,86,30.07,29.83,1,0,2,0.25
2013-12-21,42.8,39.0,36.9,42.8,39.0,36.9,100,100,100,29.89,29.75,3,0,3,0.31
2013-12-22,39.3,37.3,35.6,39.3,37.3,35.6,100,100,100,30.01,29.80,6,0,6,0.31
2013-12-23,39.1,37.5,35.0,39.1,37.5,35.0,100,100,100,30.03,29.89,3,0,3,0.10
2013-12-24,38.9,27.4,16.1,38.9,25.2,11.0,100,91,80,30.06,29.97,6,0,7,0.00
2013-12-25,16.4,13.6,11.7,11.7,8.4,6.5,82,79,78,30.28,30.06,13,3,13,0.00
2013-12-30,34.6,20.9,8.4,34.6,16.5,1.7,100,83,74,30.08,29.65,7,0,7,0.00
2013-12-31,12.1,8.1,3.4,9.0,2.5,-2.2,95,78,63,30.10,29.96,6,0,7,0.00
2014-1-1,22.1,15.8,6.3,15.9,6.8,-1.0,100,68,51,30.33,30.01,22,0,22,0.00
2014-1-2,6.3,-0.4,-3.1,-0.8,-6.2,-11.0,81,76,64,30.40,29.91,11,1,12,0.00